createdAt,value
2023-01-03T00:01:49.968Z,17.02
2023-01-03T00:04:18.022Z,20.20
2023-01-03T00:06:51.997Z,18.38
2023-01-03T00:09:22.984Z,19.08
2023-01-03T00:12:18.386Z,19.08
2023-01-03T00:14:45.879Z,18.38
2023-01-03T00:17:13.714Z,19.98
2023-01-03T00:19:44.019Z,21.13
2023-01-03T00:22:12.620Z,15.98
2023-01-03T00:24:40.441Z,20.92
2023-01-03T00:27:08.582Z,18.88
2023-01-03T00:29:36.452Z,19.90
2023-01-03T00:32:04.511Z,17.55
2023-01-03T00:34:32.562Z,16.80
2023-01-03T00:36:59.808Z,18.27
2023-01-03T00:39:27.397Z,20.08
2023-01-03T00:41:54.924Z,19.02
2023-01-03T00:44:22.508Z,20.83
2023-01-03T00:46:49.600Z,18.05
2023-01-03T00:49:17.133Z,15.15
2023-01-03T00:51:44.641Z,18.98
2023-01-03T00:54:13.611Z,18.73
2023-01-03T00:56:43.192Z,13.70
2023-01-03T00:59:12.156Z,17.45
2023-01-03T01:01:47.123Z,17.58
2023-01-03T01:04:20.550Z,18.08
2023-01-03T01:07:01.927Z,15.50
2023-01-03T01:09:35.482Z,15.25
2023-01-03T01:12:03.529Z,16.55
2023-01-03T01:14:33.474Z,16.63
2023-01-03T01:17:06.328Z,13.70
2023-01-03T01:19:36.885Z,17.55
2023-01-03T01:22:04.908Z,13.48
2023-01-03T01:24:32.964Z,15.25
2023-01-03T01:27:00.243Z,17.13
2023-01-03T01:29:27.769Z,22.17
2023-01-03T01:31:54.946Z,15.35
2023-01-03T01:34:22.581Z,17.80
2023-01-03T01:36:49.930Z,13.85
2023-01-03T01:39:20.615Z,14.68
2023-01-03T01:42:08.179Z,18.40
2023-01-03T01:44:55.384Z,15.80
2023-01-03T01:47:43.945Z,15.10
2023-01-03T01:50:40.338Z,14.40
2023-01-03T01:53:29.013Z,16.83
2023-01-03T01:56:11.101Z,18.00
2023-01-03T01:58:41.289Z,15.70
2023-01-03T02:01:15.470Z,14.60
2023-01-03T02:03:45.333Z,17.77
2023-01-03T02:06:15.589Z,13.38
2023-01-03T02:08:42.851Z,13.23
2023-01-03T02:11:31.433Z,17.52
2023-01-03T02:14:29.434Z,15.25
2023-01-03T02:17:08.610Z,13.73
2023-01-03T02:19:47.802Z,16.40
2023-01-03T02:22:20.721Z,14.95
2023-01-03T02:25:15.909Z,12.32
2023-01-03T02:28:17.580Z,8.48
2023-01-03T02:30:57.604Z,8.25
2023-01-03T02:33:31.014Z,8.88
2023-01-03T02:36:20.220Z,6.70
2023-01-03T02:39:02.985Z,4.70
2023-01-03T02:41:46.607Z,3.63
2023-01-03T02:44:31.119Z,6.38
2023-01-03T02:47:09.376Z,2.60
2023-01-03T02:49:44.761Z,2.50
2023-01-03T02:52:15.601Z,1.80
2023-01-03T02:55:02.776Z,4.35
2023-01-03T02:57:41.100Z,2.28
2023-01-03T03:00:15.432Z,3.47
2023-01-03T03:02:50.100Z,2.08
2023-01-03T03:05:28.348Z,2.00
2023-01-03T03:07:55.558Z,1.20
2023-01-03T03:10:42.362Z,1.65
2023-01-03T03:13:54.364Z,1.90
2023-01-03T03:16:43.163Z,1.75
2023-01-03T03:19:38.718Z,2.38
2023-01-03T03:22:46.883Z,2.85
2023-01-03T03:25:22.031Z,3.28
2023-01-03T03:28:10.998Z,1.92
2023-01-03T03:30:40.990Z,1.83
2023-01-03T03:33:11.799Z,2.72
2023-01-03T03:35:49.510Z,2.50
2023-01-03T03:38:24.554Z,2.55
2023-01-03T03:41:28.625Z,2.45
2023-01-03T03:44:33.579Z,1.77
2023-01-03T03:47:24.252Z,1.50
2023-01-03T03:49:54.350Z,2.95
2023-01-03T03:52:27.433Z,3.33
2023-01-03T03:55:10.181Z,3.30
2023-01-03T03:57:51.483Z,2.78
2023-01-03T04:00:24.373Z,1.77
2023-01-03T04:02:54.275Z,1.95
2023-01-03T04:05:24.863Z,3.58
2023-01-03T04:07:52.079Z,2.28
2023-01-03T04:10:23.636Z,1.98
2023-01-03T04:12:52.069Z,2.42
2023-01-03T04:15:19.589Z,3.90
2023-01-03T04:17:47.029Z,4.18
2023-01-03T04:20:15.203Z,2.50
2023-01-03T04:22:42.429Z,4.15
2023-01-03T04:25:10.017Z,6.82
2023-01-03T04:27:37.311Z,3.67
2023-01-03T04:30:05.864Z,2.95
2023-01-03T04:32:33.243Z,2.13
2023-01-03T04:35:00.653Z,3.40
2023-01-03T04:37:27.838Z,3.10
2023-01-03T04:39:55.341Z,2.70
2023-01-03T04:42:41.082Z,2.90
2023-01-03T04:45:09.536Z,3.45
2023-01-03T04:47:36.772Z,2.63
2023-01-03T04:50:04.609Z,4.38
2023-01-03T04:52:32.715Z,2.38
2023-01-03T04:55:00.171Z,4.25
2023-01-03T04:57:27.281Z,3.25
2023-01-03T04:59:54.759Z,3.30
2023-01-03T05:02:21.950Z,4.60
2023-01-03T05:04:49.347Z,3.45
2023-01-03T05:07:16.511Z,3.40
2023-01-03T05:09:44.225Z,5.47
2023-01-03T05:12:12.375Z,4.90
2023-01-03T05:14:41.637Z,6.53
2023-01-03T05:17:09.275Z,4.68
2023-01-03T05:19:56.650Z,4.28
2023-01-03T05:22:42.632Z,3.50
2023-01-03T05:25:29.362Z,4.72
2023-01-03T05:27:57.742Z,3.58
2023-01-03T05:30:25.717Z,4.13
2023-01-03T05:32:52.913Z,4.13
2023-01-03T05:35:20.397Z,3.35
2023-01-03T05:37:47.592Z,4.72
2023-01-03T05:40:15.047Z,7.00
2023-01-03T05:42:42.207Z,4.05
2023-01-03T05:45:10.162Z,4.20
2023-01-03T05:47:37.269Z,5.20
2023-01-03T05:50:05.171Z,3.92
2023-01-03T05:52:32.296Z,4.05
2023-01-03T05:54:59.850Z,2.72
2023-01-03T05:57:31.793Z,3.80
2023-01-03T06:00:04.333Z,5.10
2023-01-03T06:02:32.860Z,4.65
2023-01-03T06:05:00.702Z,7.32
2023-01-03T06:07:30.182Z,5.07
2023-01-03T06:09:57.596Z,5.88
2023-01-03T06:12:27.055Z,4.95
2023-01-03T06:14:54.717Z,4.72
2023-01-03T06:17:40.530Z,4.13
2023-01-03T06:20:08.601Z,4.88
2023-01-03T06:22:36.383Z,4.72
2023-01-03T06:25:03.949Z,4.68
2023-01-03T06:27:31.242Z,8.65
2023-01-03T06:29:59.662Z,4.38
2023-01-03T06:32:26.968Z,5.45
2023-01-03T06:34:54.383Z,6.45
2023-01-03T06:37:21.832Z,7.50
2023-01-03T06:39:49.272Z,11.68
2023-01-03T06:42:34.832Z,9.95
2023-01-03T06:45:21.163Z,10.85
2023-01-03T06:48:06.818Z,9.55
2023-01-03T06:50:52.643Z,7.57
2023-01-03T06:53:22.761Z,7.47
2023-01-03T06:55:56.653Z,8.52
2023-01-03T06:58:24.959Z,7.25
2023-01-03T07:00:53.600Z,11.13
2023-01-03T07:03:21.717Z,7.55
2023-01-03T07:05:49.549Z,6.03
2023-01-03T07:08:16.766Z,5.40
2023-01-03T07:10:44.180Z,6.10
2023-01-03T07:13:29.970Z,8.82
2023-01-03T07:15:57.546Z,11.13
2023-01-03T07:18:26.350Z,11.40
2023-01-03T07:20:54.628Z,4.95
2023-01-03T07:23:21.864Z,8.55
2023-01-03T07:25:49.374Z,9.10
2023-01-03T07:28:17.430Z,12.82
2023-01-03T07:30:46.526Z,11.05
2023-01-03T07:33:15.705Z,32.80
2023-01-03T07:35:43.467Z,14.43
2023-01-03T07:38:12.192Z,10.57
2023-01-03T07:40:40.461Z,7.43
2023-01-03T07:43:29.464Z,32.10
2023-01-03T07:45:57.175Z,8.02
2023-01-03T07:48:24.340Z,13.88
2023-01-03T07:50:57.616Z,9.18
2023-01-03T07:53:24.814Z,8.88
2023-01-03T07:55:52.272Z,9.38
2023-01-03T07:58:19.633Z,9.57
2023-01-03T08:00:47.127Z,9.95
2023-01-03T08:03:15.713Z,13.48
2023-01-03T08:05:43.445Z,27.52
2023-01-03T08:08:11.132Z,10.20
2023-01-03T08:10:57.256Z,20.83
2023-01-03T08:13:25.252Z,17.15
2023-01-03T08:15:55.550Z,7.20
2023-01-03T08:18:26.127Z,6.43
2023-01-03T08:20:55.697Z,7.35
2023-01-03T08:23:26.644Z,11.93
2023-01-03T08:26:03.978Z,9.32
2023-01-03T08:28:31.143Z,9.60
2023-01-03T08:31:02.325Z,6.57
2023-01-03T08:33:34.482Z,9.45
2023-01-03T08:36:06.454Z,6.85
2023-01-03T08:38:38.097Z,33.78
2023-01-03T08:41:09.835Z,6.22
2023-01-03T08:43:41.130Z,9.48
2023-01-03T08:46:11.416Z,9.52
2023-01-03T08:48:38.892Z,6.95
2023-01-03T08:51:06.454Z,6.95
2023-01-03T08:53:33.496Z,9.82
2023-01-03T08:56:01.021Z,14.35
2023-01-03T08:58:28.230Z,7.55
2023-01-03T09:00:55.779Z,9.27
2023-01-03T09:03:22.996Z,10.15
2023-01-03T09:05:50.578Z,7.20
2023-01-03T09:08:18.461Z,6.20
2023-01-03T09:10:47.937Z,8.43
2023-01-03T09:13:15.207Z,7.10
2023-01-03T09:15:42.525Z,8.63
2023-01-03T09:18:09.664Z,7.50
2023-01-03T09:20:36.965Z,7.80
2023-01-03T09:23:04.050Z,8.98
2023-01-03T09:25:36.729Z,8.55
2023-01-03T09:28:04.438Z,8.50
2023-01-03T09:30:31.761Z,7.72
2023-01-03T09:32:58.813Z,6.63
2023-01-03T09:35:26.112Z,7.28
2023-01-03T09:37:53.244Z,7.20
2023-01-03T09:40:20.587Z,6.68
2023-01-03T09:43:06.273Z,5.10
2023-01-03T09:45:34.956Z,5.38
2023-01-03T09:48:05.078Z,7.95
2023-01-03T09:51:14.212Z,6.32
2023-01-03T09:53:51.627Z,4.88
2023-01-03T09:56:37.785Z,4.82
2023-01-03T09:59:32.149Z,5.82
2023-01-03T10:02:47.923Z,6.97
2023-01-03T10:05:35.439Z,7.00
2023-01-03T10:08:10.785Z,3.38
2023-01-03T10:11:02.480Z,3.80
2023-01-03T10:13:58.490Z,3.95
2023-01-03T10:16:34.707Z,3.25
2023-01-03T10:19:24.980Z,4.05
2023-01-03T10:22:12.962Z,4.55
2023-01-03T10:24:50.353Z,3.35
2023-01-03T10:27:19.329Z,11.77
2023-01-03T10:29:47.358Z,3.47
2023-01-03T10:32:17.185Z,2.90
2023-01-03T10:34:44.616Z,5.15
2023-01-03T10:37:19.399Z,6.38
2023-01-03T10:39:46.736Z,4.80
2023-01-03T10:42:18.642Z,3.95
2023-01-03T10:44:59.910Z,5.80
2023-01-03T10:47:27.504Z,5.47
2023-01-03T10:50:02.860Z,5.70
2023-01-03T10:52:38.880Z,6.43
2023-01-03T10:55:13.692Z,4.75
2023-01-03T10:58:01.235Z,7.88
2023-01-03T11:00:37.780Z,6.97
2023-01-03T11:03:17.126Z,5.97
2023-01-03T11:05:47.848Z,4.18
2023-01-03T11:08:21.465Z,5.47
2023-01-03T11:10:52.489Z,3.95
2023-01-03T11:13:37.702Z,4.30
2023-01-03T11:16:15.755Z,3.95
2023-01-03T11:19:00.939Z,5.78
2023-01-03T11:21:45.030Z,4.50
2023-01-03T11:24:15.251Z,6.00
2023-01-03T11:26:56.621Z,4.57
2023-01-03T11:29:43.319Z,5.15
2023-01-03T11:32:57.525Z,8.07
2023-01-03T11:36:05.646Z,4.78
2023-01-03T11:38:56.006Z,6.20
2023-01-03T11:41:34.693Z,4.97
2023-01-03T11:44:23.459Z,5.80
2023-01-03T11:47:28.545Z,7.40
2023-01-03T11:50:02.299Z,3.72
2023-01-03T11:52:52.066Z,3.00
2023-01-03T11:55:40.405Z,2.97
2023-01-03T11:58:25.146Z,3.00
2023-01-03T12:01:20.115Z,4.20
2023-01-03T12:03:59.469Z,6.93
2023-01-03T12:06:42.161Z,6.63
2023-01-03T12:09:12.009Z,4.40
2023-01-03T12:11:57.918Z,3.85
2023-01-03T12:14:40.132Z,6.57
2023-01-03T12:17:13.616Z,6.35
2023-01-03T12:19:45.880Z,5.85
2023-01-03T12:22:27.573Z,3.88
2023-01-03T12:25:15.341Z,3.83
2023-01-03T12:27:48.155Z,3.63
2023-01-03T12:30:33.161Z,2.80
2023-01-03T12:33:26.060Z,4.40
2023-01-03T12:36:05.679Z,3.60
2023-01-03T12:38:46.051Z,4.13
2023-01-03T12:41:22.303Z,4.15
2023-01-03T12:43:58.498Z,4.68
2023-01-03T12:46:33.194Z,3.55
2023-01-03T12:49:09.217Z,6.85
2023-01-03T12:51:36.604Z,5.43
2023-01-03T12:54:21.821Z,5.72
2023-01-03T12:57:24.744Z,6.22
2023-01-03T13:00:17.430Z,7.00
2023-01-03T13:02:55.031Z,5.65
2023-01-03T13:05:50.469Z,5.50
2023-01-03T13:08:30.114Z,5.10
2023-01-03T13:11:04.646Z,4.95
2023-01-03T13:13:33.180Z,4.18
2023-01-03T13:16:20.796Z,5.30
2023-01-03T13:18:47.960Z,4.30
2023-01-03T13:21:53.504Z,8.48
2023-01-03T13:24:38.927Z,6.53
2023-01-03T13:27:20.486Z,9.32
2023-01-03T13:29:50.507Z,6.32
2023-01-03T13:32:26.271Z,16.33
2023-01-03T13:34:59.014Z,9.90
2023-01-03T13:37:27.694Z,6.18
2023-01-03T13:40:17.162Z,8.25
2023-01-03T13:42:45.181Z,5.85
2023-01-03T13:45:30.676Z,8.23
2023-01-03T13:48:08.536Z,6.63
2023-01-03T13:50:37.542Z,7.22
2023-01-03T13:53:24.815Z,6.13
2023-01-03T13:56:00.477Z,6.88
2023-01-03T13:58:46.388Z,6.20
2023-01-03T14:01:29.285Z,6.53
2023-01-03T14:04:17.598Z,9.05
2023-01-03T14:07:02.853Z,8.45
2023-01-03T14:09:52.172Z,6.05
2023-01-03T14:12:53.204Z,13.32
2023-01-03T14:15:26.271Z,7.53
2023-01-03T14:18:20.969Z,7.57
2023-01-03T14:20:52.580Z,7.22
2023-01-03T14:23:58.274Z,9.27
2023-01-03T14:26:16.769Z,7.28
2023-01-03T14:28:49.540Z,10.02
2023-01-03T14:31:27.577Z,8.65
2023-01-03T14:34:03.488Z,6.35
2023-01-03T14:36:31.221Z,8.65
2023-01-03T14:39:01.736Z,10.05
2023-01-03T14:41:39.064Z,9.32
2023-01-03T14:44:12.095Z,8.02
2023-01-03T14:46:47.986Z,8.90
2023-01-03T14:49:20.307Z,7.97
2023-01-03T14:51:48.044Z,7.25
2023-01-03T14:54:17.594Z,7.32
2023-01-03T14:56:46.790Z,8.65
2023-01-03T14:59:19.333Z,6.55
2023-01-03T15:01:48.135Z,10.38
2023-01-03T15:04:17.056Z,8.73
2023-01-03T15:07:09.576Z,10.40
2023-01-03T15:09:40.116Z,13.35
2023-01-03T15:12:07.991Z,10.90
2023-01-03T15:14:39.211Z,11.57
2023-01-03T15:17:13.161Z,12.60
2023-01-03T15:19:47.902Z,14.30
2023-01-03T15:22:21.247Z,8.73
2023-01-03T15:24:53.818Z,13.48
2023-01-03T15:27:39.691Z,10.95
2023-01-03T15:30:16.080Z,21.02
2023-01-03T15:32:56.184Z,28.42
2023-01-03T15:35:28.324Z,12.10
2023-01-03T15:37:56.687Z,9.20
2023-01-03T15:40:24.333Z,9.85
2023-01-03T15:43:10.789Z,12.00
2023-01-03T15:45:40.960Z,15.70
2023-01-03T15:48:14.460Z,12.77
2023-01-03T15:50:49.762Z,21.58
2023-01-03T15:53:25.068Z,20.98
2023-01-03T15:55:58.934Z,15.32
2023-01-03T15:58:27.998Z,20.77
2023-01-03T16:00:55.323Z,18.42
2023-01-03T16:03:25.762Z,23.67
2023-01-03T16:05:53.003Z,38.10
2023-01-03T16:08:26.919Z,14.80
2023-01-03T16:10:55.149Z,13.55
2023-01-03T16:13:25.089Z,13.00
2023-01-03T16:15:53.382Z,10.88
2023-01-03T16:18:26.806Z,13.65
2023-01-03T16:20:56.207Z,26.80
2023-01-03T16:23:30.405Z,15.52
2023-01-03T16:25:58.020Z,17.83
2023-01-03T16:28:26.508Z,13.35
2023-01-03T16:31:15.549Z,14.68
2023-01-03T16:33:43.998Z,15.07
2023-01-03T16:36:39.454Z,17.65
2023-01-03T16:39:17.726Z,14.77
2023-01-03T16:42:06.039Z,15.55
2023-01-03T16:44:35.416Z,17.55
2023-01-03T16:47:06.521Z,24.92
2023-01-03T16:49:36.134Z,35.80
2023-01-03T16:52:03.920Z,26.42
2023-01-03T16:54:31.508Z,11.43
2023-01-03T16:56:58.904Z,22.08
2023-01-03T16:59:26.381Z,11.45
2023-01-03T17:01:53.764Z,15.27
2023-01-03T17:04:21.336Z,16.95
2023-01-03T17:06:48.647Z,18.00
2023-01-03T17:09:22.697Z,10.82
2023-01-03T17:11:49.925Z,24.83
2023-01-03T17:14:20.044Z,10.50
2023-01-03T17:16:48.204Z,11.80
2023-01-03T17:22:18.748Z,13.90
2023-01-03T17:24:46.701Z,8.05
2023-01-03T17:27:31.762Z,12.65
2023-01-03T17:30:04.613Z,10.07
2023-01-03T17:32:32.113Z,21.75
2023-01-03T17:34:59.675Z,14.25
2023-01-03T17:37:27.083Z,14.40
2023-01-03T17:39:57.211Z,11.90
2023-01-03T17:42:25.733Z,12.80
2023-01-03T17:45:22.668Z,14.38
2023-01-03T17:48:08.132Z,16.00
2023-01-03T17:50:35.575Z,10.48
2023-01-03T17:53:02.869Z,13.50
2023-01-03T17:55:31.038Z,12.95
2023-01-03T17:58:01.437Z,11.10
2023-01-03T18:00:30.239Z,12.98
2023-01-03T18:03:00.371Z,11.07
2023-01-03T18:05:29.935Z,10.65
2023-01-03T18:08:00.964Z,16.23
2023-01-03T18:10:43.477Z,22.40
2023-01-03T18:13:22.988Z,12.18
2023-01-03T18:15:51.095Z,11.98
2023-01-03T18:18:20.779Z,15.63
2023-01-03T18:20:48.994Z,18.85
2023-01-03T18:23:17.973Z,26.02
2023-01-03T18:25:45.856Z,13.57
2023-01-03T18:28:17.430Z,14.30
2023-01-03T18:30:44.672Z,24.40
2023-01-03T18:33:12.092Z,9.50
2023-01-03T18:35:39.485Z,15.57
2023-01-03T18:38:07.375Z,13.18
2023-01-03T18:40:42.083Z,12.90
2023-01-03T18:43:15.286Z,14.95
2023-01-03T18:45:42.588Z,22.15
2023-01-03T18:48:22.091Z,25.10
2023-01-03T18:50:57.953Z,20.08
2023-01-03T18:53:31.179Z,26.23
2023-01-03T18:55:59.714Z,19.30
2023-01-03T18:58:39.821Z,18.95
2023-01-03T19:01:07.363Z,15.65
2023-01-03T19:03:35.730Z,25.17
2023-01-03T19:06:06.369Z,12.82
2023-01-03T19:08:34.168Z,13.73
2023-01-03T19:11:08.538Z,12.95
2023-01-03T19:13:50.510Z,24.30
2023-01-03T19:16:23.297Z,28.33
2023-01-03T19:18:51.338Z,24.50
2023-01-03T19:21:21.549Z,16.67
2023-01-03T19:23:56.945Z,14.25
2023-01-03T19:26:44.695Z,13.10
2023-01-03T19:29:22.541Z,10.50
2023-01-03T19:31:52.742Z,14.27
2023-01-03T19:34:22.842Z,13.02
2023-01-03T19:36:50.335Z,11.55
2023-01-03T19:39:24.430Z,11.40
2023-01-03T19:42:17.113Z,15.63
2023-01-03T19:44:44.912Z,14.15
2023-01-03T19:47:17.663Z,13.23
2023-01-03T19:49:50.026Z,13.00
2023-01-03T19:52:18.119Z,14.23
2023-01-03T19:54:45.681Z,19.55
2023-01-03T19:57:22.876Z,14.15
2023-01-03T19:59:54.377Z,12.63
2023-01-03T20:02:37.810Z,23.90
2023-01-03T20:05:15.634Z,21.38
2023-01-03T20:07:43.087Z,11.73
2023-01-03T20:10:22.134Z,10.57
2023-01-03T20:12:53.456Z,15.68
2023-01-03T20:15:32.320Z,10.13
2023-01-03T20:17:59.904Z,11.95
2023-01-03T20:20:32.470Z,14.07
2023-01-03T20:23:07.915Z,12.57
2023-01-03T20:25:37.145Z,13.15
2023-01-03T20:28:05.331Z,11.75
2023-01-03T20:30:33.982Z,20.13
2023-01-03T20:33:01.326Z,14.70
2023-01-03T20:38:24.899Z,12.73
2023-01-03T20:40:53.587Z,16.50
2023-01-03T20:43:21.087Z,28.27
2023-01-03T20:45:53.673Z,11.43
2023-01-03T20:48:25.437Z,12.85
2023-01-03T20:50:53.573Z,10.60
2023-01-03T20:53:25.661Z,10.73
2023-01-03T20:55:53.634Z,14.32
2023-01-03T20:58:27.753Z,10.80
2023-01-03T21:01:04.254Z,9.95
2023-01-03T21:03:33.729Z,9.05
2023-01-03T21:06:02.409Z,11.20
2023-01-03T21:08:48.605Z,14.38
2023-01-03T21:11:16.047Z,9.38
2023-01-03T21:13:43.803Z,14.10
2023-01-03T21:16:31.446Z,11.25
2023-01-03T21:19:22.920Z,12.30
2023-01-03T21:21:55.163Z,13.43
2023-01-03T21:24:24.276Z,9.45
2023-01-03T21:26:52.060Z,19.40
2023-01-03T21:29:19.319Z,10.27
2023-01-03T21:31:46.921Z,10.50
2023-01-03T21:34:19.247Z,10.38
2023-01-03T21:36:47.079Z,16.52
2023-01-03T21:39:14.514Z,10.10
2023-01-03T21:42:00.389Z,12.25
2023-01-03T21:44:27.757Z,11.32
2023-01-03T21:46:55.691Z,12.13
2023-01-03T21:49:22.818Z,12.15
2023-01-03T21:51:50.244Z,13.40
2023-01-03T21:54:17.434Z,10.32
2023-01-03T21:56:46.094Z,11.73
2023-01-03T21:59:15.323Z,10.50
2023-01-03T22:02:05.596Z,8.85
2023-01-03T22:04:33.731Z,12.32
2023-01-03T22:07:01.955Z,12.27
2023-01-03T22:09:49.219Z,10.45
2023-01-03T22:12:18.319Z,14.38
2023-01-03T22:14:46.481Z,9.35
2023-01-03T22:17:14.484Z,13.75
2023-01-03T22:19:41.745Z,14.27
2023-01-03T22:22:09.252Z,24.80
2023-01-03T22:24:36.404Z,11.95
2023-01-03T22:27:04.134Z,9.95
2023-01-03T22:29:31.241Z,15.23
2023-01-03T22:31:58.826Z,11.52
2023-01-03T22:34:26.061Z,9.70
2023-01-03T22:36:53.468Z,8.52
2023-01-03T22:39:20.535Z,10.13
2023-01-03T22:41:47.954Z,8.50
2023-01-03T22:44:15.144Z,27.05
2023-01-03T22:46:42.559Z,10.82
2023-01-03T22:49:09.810Z,13.30
2023-01-03T22:51:37.241Z,14.82
2023-01-03T22:54:04.983Z,27.30
2023-01-03T22:56:32.456Z,13.25
2023-01-03T22:58:59.698Z,31.67
2023-01-03T23:01:30.215Z,10.70
2023-01-03T23:04:03.287Z,16.30
2023-01-03T23:06:31.820Z,21.23
2023-01-03T23:08:59.390Z,11.10
2023-01-03T23:11:48.087Z,8.43
2023-01-03T23:14:19.946Z,13.27
2023-01-03T23:16:48.014Z,13.20
2023-01-03T23:19:17.947Z,16.95
2023-01-03T23:21:46.181Z,18.52
2023-01-03T23:24:15.421Z,14.35
2023-01-03T23:26:43.433Z,25.02
2023-01-03T23:29:11.959Z,12.30
2023-01-03T23:31:39.952Z,21.50
2023-01-03T23:34:08.472Z,22.15
2023-01-03T23:36:35.885Z,23.83
2023-01-03T23:39:03.219Z,13.93
2023-01-03T23:41:30.764Z,15.70
2023-01-03T23:43:57.927Z,16.70
2023-01-03T23:46:25.377Z,17.00
2023-01-03T23:48:57.172Z,13.43
2023-01-03T23:51:25.209Z,16.08
2023-01-03T23:53:53.409Z,13.88
2023-01-03T23:56:23.310Z,13.27
2023-01-03T23:58:51.118Z,13.90
